Time;durP1;ratioP1;P1;durP2;ratioP2;P2;SDS_P1;SDS_P2;PMS_P1;PMS_P2;Temp;Humidity;BMP_temperature;BMP_pressure;BME280_temperature;BME280_humidity;BME280_pressure;Samples;Min_cycle;Max_cycle;Signal;HPM_P1;HPM_P2
2023/02/22 00:01:34;;;;;;;97.03;37.30;;;8.60;99.90;;;;;;6226532;23;20023;-86
2023/02/22 00:04:01;;;;;;;95.70;36.38;;;8.90;99.90;;;;;;6247511;23;20027;-82
2023/02/22 00:06:27;;;;;;;94.25;36.85;;;9.10;99.90;;;;;;6194633;23;20043;-85
2023/02/22 00:08:56;;;;;;;85.97;36.38;;;8.50;99.90;;;;;;6198002;23;20008;-85
2023/02/22 00:11:22;;;;;;;94.82;37.15;;;9.10;99.90;;;;;;6193269;23;20470;-84
2023/02/22 00:13:49;;;;;;;98.85;37.55;;;8.40;99.90;;;;;;6218286;23;20051;-81
2023/02/22 00:16:22;;;;;;;98.97;36.75;;;9.10;99.90;;;;;;6216757;23;20012;-81
2023/02/22 00:18:49;;;;;;;98.32;36.63;;;9.00;99.90;;;;;;6217054;23;20016;-85
2023/02/22 00:21:15;;;;;;;88.10;35.60;;;8.50;99.90;;;;;;6191794;23;20027;-84
2023/02/22 00:23:45;;;;;;;104.30;37.20;;;9.00;99.90;;;;;;6243158;23;20004;-83
2023/02/22 00:26:17;;;;;;;107.85;37.30;;;9.00;99.90;;;;;;6194312;23;20411;-82
2023/02/22 00:28:45;;;;;;;88.85;34.50;;;9.00;99.90;;;;;;6192047;23;20032;-82
2023/02/22 00:31:11;;;;;;;92.45;35.03;;;8.40;99.90;;;;;;6191577;23;20346;-84
2023/02/22 00:33:38;;;;;;;88.32;34.20;;;8.40;99.90;;;;;;6217551;23;20047;-80
2023/02/22 00:36:04;;;;;;;107.45;35.15;;;8.80;99.90;;;;;;6192478;23;20046;-86
2023/02/22 00:38:29;;;;;;;94.82;34.00;;;8.40;99.90;;;;;;6242924;23;20020;-85
2023/02/22 00:40:55;;;;;;;96.88;35.35;;;8.40;99.90;;;;;;6241524;23;20111;-84
2023/02/22 00:43:21;;;;;;;85.43;33.63;;;8.90;99.90;;;;;;6190232;23;20020;-84
2023/02/22 00:45:47;;;;;;;94.75;35.33;;;8.90;99.90;;;;;;6216600;23;20482;-82
2023/02/22 00:48:13;;;;;;;92.03;33.35;;;8.50;99.90;;;;;;6216935;23;20015;-81
2023/02/22 00:50:39;;;;;;;91.65;33.88;;;9.00;99.90;;;;;;6216710;23;20047;-82
2023/02/22 00:53:06;;;;;;;93.60;32.50;;;8.80;99.90;;;;;;6190258;23;20096;-83
2023/02/22 00:55:34;;;;;;;81.50;31.75;;;9.00;99.90;;;;;;6192051;23;20016;-84
2023/02/22 00:58:03;;;;;;;85.43;32.40;;;9.00;99.90;;;;;;6216921;23;20012;-81
2023/02/22 01:00:40;;;;;;;84.32;32.45;;;8.90;99.90;;;;;;6166984;23;20444;-82
2023/02/22 01:03:08;;;;;;;80.35;31.20;;;8.50;99.90;;;;;;6192955;23;20012;-79
2023/02/22 01:05:33;;;;;;;75.45;30.45;;;8.80;99.90;;;;;;6217876;23;20020;-82
2023/02/22 01:08:01;;;;;;;88.53;31.58;;;8.40;99.90;;;;;;6245080;23;20015;-84
2023/02/22 01:10:45;;;;;;;91.00;32.17;;;8.60;99.90;;;;;;6216910;23;20012;-82
2023/02/22 01:13:12;;;;;;;86.78;30.67;;;8.50;99.90;;;;;;6243704;23;20004;-80
2023/02/22 01:15:40;;;;;;;67.65;27.48;;;8.80;99.90;;;;;;6192155;23;20416;-84
2023/02/22 01:18:07;;;;;;;73.00;28.48;;;8.50;99.90;;;;;;6217269;23;20016;-82
2023/02/22 01:20:35;;;;;;;77.72;30.42;;;8.90;99.90;;;;;;6192713;23;20361;-82
2023/02/22 01:23:05;;;;;;;79.15;29.95;;;9.00;99.90;;;;;;6216299;23;20012;-79
2023/02/22 01:25:50;;;;;;;75.65;28.95;;;8.90;99.90;;;;;;6217190;23;20138;-79
2023/02/22 01:28:16;;;;;;;74.32;27.77;;;8.50;99.90;;;;;;6216702;23;20448;-84
2023/02/22 01:30:42;;;;;;;75.70;27.95;;;8.80;99.90;;;;;;6217425;23;20023;-84
2023/02/22 01:33:08;;;;;;;66.70;26.17;;;8.90;99.90;;;;;;6243874;23;20118;-82
2023/02/22 01:35:39;;;;;;;61.55;25.30;;;8.30;99.90;;;;;;6193709;23;20020;-82
2023/02/22 01:38:05;;;;;;;55.28;24.02;;;8.30;99.90;;;;;;6192111;23;20012;-83
2023/02/22 01:40:41;;;;;;;56.67;23.90;;;8.40;99.90;;;;;;6216306;23;20333;-82
2023/02/22 01:43:44;;;;;;;51.20;22.05;;;8.80;99.90;;;;;;6218167;23;20016;-79
2023/02/22 01:46:22;;;;;;;50.47;22.83;;;8.60;99.90;;;;;;6067188;23;20093;-81
2023/02/22 01:49:00;;;;;;;52.95;23.60;;;8.70;99.90;;;;;;6092962;23;20018;-78
2023/02/22 01:51:31;;;;;;;54.72;22.92;;;8.70;99.90;;;;;;6067672;23;20025;-84
2023/02/22 01:54:20;;;;;;;54.90;23.50;;;8.80;99.90;;;;;;6044372;23;20041;-79
2023/02/22 01:57:13;;;;;;;55.42;24.83;;;8.30;99.90;;;;;;6068077;23;20023;-82
2023/02/22 01:59:45;;;;;;;57.50;23.90;;;8.70;99.90;;;;;;6091272;23;20023;-83
2023/02/22 02:02:12;;;;;;;51.88;22.60;;;8.80;99.90;;;;;;6066902;23;20419;-84
2023/02/22 02:04:41;;;;;;;49.40;23.17;;;8.30;99.90;;;;;;6068060;23;20348;-84
2023/02/22 02:07:09;;;;;;;48.10;22.33;;;8.40;99.90;;;;;;6044334;23;20019;-85
2023/02/22 02:09:53;;;;;;;48.05;22.58;;;8.40;99.90;;;;;;6067316;23;20101;-84
2023/02/22 02:12:22;;;;;;;47.72;22.75;;;8.50;99.90;;;;;;6044613;23;20427;-85
2023/02/22 02:14:48;;;;;;;48.58;22.17;;;8.80;99.90;;;;;;6068347;23;20022;-83
2023/02/22 02:17:16;;;;;;;52.83;24.40;;;8.60;99.90;;;;;;6042878;23;20121;-82
2023/02/22 02:20:12;;;;;;;52.88;23.17;;;8.50;99.90;;;;;;6094165;23;20015;-83
2023/02/22 02:22:59;;;;;;;47.88;21.30;;;8.40;99.90;;;;;;6123534;23;20015;-81
2023/02/22 02:25:53;;;;;;;50.05;22.10;;;8.50;99.90;;;;;;6192219;23;20416;-83
2023/02/22 02:28:37;;;;;;;48.30;21.75;;;8.70;99.90;;;;;;6242670;23;20016;-84
2023/02/22 02:31:34;;;;;;;44.17;21.13;;;8.60;99.90;;;;;;6191353;23;20600;-79
2023/02/22 02:34:38;;;;;;;44.10;21.65;;;8.60;99.90;;;;;;6245543;23;20456;-84
2023/02/22 02:37:07;;;;;;;44.70;20.88;;;8.30;99.90;;;;;;6093518;23;20018;-84
2023/02/22 02:39:59;;;;;;;46.00;21.33;;;8.70;99.90;;;;;;6066946;23;20035;-85
2023/02/22 02:42:32;;;;;;;41.47;21.50;;;8.30;99.90;;;;;;5979454;23;20026;-85
2023/02/22 02:45:11;;;;;;;43.63;21.42;;;8.70;99.90;;;;;;5956415;24;20052;-81
2023/02/22 02:47:41;;;;;;;46.25;21.75;;;8.50;99.90;;;;;;5954276;24;20028;-83
2023/02/22 02:50:09;;;;;;;47.05;22.33;;;8.20;99.90;;;;;;5953989;24;20024;-81
2023/02/22 02:52:38;;;;;;;45.47;21.70;;;8.80;99.90;;;;;;5955560;23;20024;-83
2023/02/22 02:55:07;;;;;;;48.65;22.48;;;8.60;99.90;;;;;;5956013;24;20411;-81
2023/02/22 02:57:32;;;;;;;48.30;22.65;;;8.20;99.90;;;;;;5956150;24;20021;-84
2023/02/22 02:59:58;;;;;;;46.63;22.27;;;8.20;99.90;;;;;;5979211;24;20012;-85
2023/02/22 03:02:50;;;;;;;47.85;23.08;;;8.70;99.90;;;;;;5955107;24;20399;-81
2023/02/22 03:05:48;;;;;;;49.67;22.42;;;8.20;99.90;;;;;;5955788;23;20031;-84
2023/02/22 03:08:28;;;;;;;48.72;22.85;;;8.60;99.90;;;;;;5978916;24;20039;-83
2023/02/22 03:11:15;;;;;;;48.83;23.27;;;8.40;99.90;;;;;;5954571;24;20072;-85
2023/02/22 03:14:16;;;;;;;46.70;22.60;;;8.20;99.90;;;;;;6016122;23;20050;-83
2023/02/22 03:16:49;;;;;;;51.22;23.50;;;8.10;99.90;;;;;;6010370;23;20047;-82
2023/02/22 03:19:44;;;;;;;49.08;23.50;;;8.20;99.90;;;;;;6040452;23;20022;-81
2023/02/22 03:22:26;;;;;;;46.40;22.98;;;8.70;99.90;;;;;;6044313;23;20499;-81
2023/02/22 03:25:06;;;;;;;46.90;23.45;;;8.50;99.90;;;;;;6091790;23;20054;-82
2023/02/22 03:27:46;;;;;;;44.28;22.17;;;8.10;99.90;;;;;;6042892;23;20018;-83
2023/02/22 03:30:22;;;;;;;49.55;23.92;;;8.50;99.90;;;;;;6091653;23;20014;-81
2023/02/22 03:33:00;;;;;;;51.60;23.90;;;8.10;99.90;;;;;;6068436;23;20048;-79
2023/02/22 03:35:34;;;;;;;48.63;24.15;;;8.00;99.90;;;;;;6092071;23;20340;-83
2023/02/22 03:38:03;;;;;;;48.47;23.10;;;8.30;99.90;;;;;;6044741;23;20019;-85
2023/02/22 03:40:42;;;;;;;51.78;24.48;;;8.60;99.90;;;;;;6092392;23;20451;-86
2023/02/22 03:43:13;;;;;;;46.05;23.67;;;8.20;99.90;;;;;;6068185;23;20315;-81
2023/02/22 03:45:42;;;;;;;47.58;23.67;;;8.50;99.90;;;;;;6044721;23;20019;-79
2023/02/22 03:48:29;;;;;;;50.53;24.85;;;8.20;99.90;;;;;;6080336;23;20018;-82
2023/02/22 03:50:57;;;;;;;50.63;25.45;;;8.60;99.90;;;;;;6132860;23;20015;-79
2023/02/22 03:53:23;;;;;;;55.10;25.65;;;8.10;99.90;;;;;;6247867;23;20391;-80
2023/02/22 03:55:50;;;;;;;52.00;24.33;;;8.20;99.90;;;;;;6215357;23;20016;-81
2023/02/22 03:58:19;;;;;;;48.42;24.95;;;8.10;99.90;;;;;;6215512;23;20022;-81
2023/02/22 04:00:45;;;;;;;51.45;26.10;;;8.10;99.90;;;;;;6189989;23;20008;-84
2023/02/22 04:03:11;;;;;;;50.17;24.83;;;8.10;99.90;;;;;;6243270;23;20015;-81
2023/02/22 04:05:37;;;;;;;54.70;25.65;;;8.50;99.90;;;;;;6217254;23;20019;-82
2023/02/22 04:08:05;;;;;;;50.22;24.95;;;8.50;99.90;;;;;;6189781;23;20432;-84
2023/02/22 04:14:12;;;;;;;59.17;26.10;;;8.10;99.90;;;;;;6244453;23;20065;-80
2023/02/22 04:16:38;;;;;;;54.67;26.60;;;8.30;99.90;;;;;;6217489;23;20409;-81
2023/02/22 04:19:05;;;;;;;58.00;27.23;;;8.00;99.90;;;;;;6191903;23;20119;-79
2023/02/22 04:21:31;;;;;;;56.63;27.55;;;7.90;99.90;;;;;;6218057;23;20424;-84
2023/02/22 04:23:57;;;;;;;56.85;25.75;;;8.00;99.90;;;;;;6244004;23;20012;-80
2023/02/22 04:26:23;;;;;;;58.30;28.00;;;8.40;99.90;;;;;;6226663;23;20067;-82
2023/02/22 04:28:48;;;;;;;53.28;25.80;;;8.10;99.90;;;;;;6222264;23;20031;-82
2023/02/22 04:31:15;;;;;;;58.67;26.80;;;8.10;99.90;;;;;;6216185;23;20021;-83
2023/02/22 04:33:41;;;;;;;59.15;27.13;;;8.40;99.90;;;;;;6217296;23;20020;-86
2023/02/22 04:36:07;;;;;;;55.97;26.15;;;8.30;99.90;;;;;;6191920;23;20027;-83
2023/02/22 04:38:33;;;;;;;55.75;25.85;;;8.30;99.90;;;;;;6216136;23;20020;-82
2023/02/22 04:40:59;;;;;;;56.60;25.80;;;7.90;99.90;;;;;;6192132;23;20428;-83
2023/02/22 04:43:25;;;;;;;57.88;26.50;;;8.00;99.90;;;;;;6244137;23;20048;-87
2023/02/22 04:45:50;;;;;;;58.65;26.45;;;8.50;99.90;;;;;;6192133;23;20020;-81
2023/02/22 04:48:16;;;;;;;57.42;26.88;;;8.00;99.90;;;;;;6190585;23;20024;-80
2023/02/22 04:50:42;;;;;;;54.90;26.52;;;8.00;99.90;;;;;;6193086;23;20012;-82
2023/02/22 04:53:07;;;;;;;55.83;26.00;;;8.50;99.90;;;;;;6217424;23;20015;-81
2023/02/22 04:55:33;;;;;;;55.92;25.80;;;8.00;99.90;;;;;;6246686;23;20047;-84
2023/02/22 04:57:59;;;;;;;61.25;26.63;;;8.00;99.90;;;;;;6218278;23;20067;-80
2023/02/22 05:00:25;;;;;;;59.67;26.60;;;8.30;99.90;;;;;;6217128;23;20012;-84
2023/02/22 05:02:51;;;;;;;61.22;28.08;;;8.50;99.90;;;;;;6192109;23;20016;-85
2023/02/22 05:05:20;;;;;;;60.00;27.02;;;8.10;99.90;;;;;;6192767;23;20048;-82
2023/02/22 05:07:47;;;;;;;60.55;27.80;;;8.20;99.90;;;;;;6191559;23;20020;-83
2023/02/22 05:10:13;;;;;;;58.88;27.65;;;8.00;99.90;;;;;;6216842;23;20118;-83
2023/02/22 05:12:39;;;;;;;62.08;29.02;;;8.00;99.90;;;;;;6215449;23;20023;-82
2023/02/22 05:15:07;;;;;;;63.35;29.30;;;8.00;99.90;;;;;;6244344;23;20044;-85
2023/02/22 05:17:33;;;;;;;61.05;28.73;;;8.50;99.90;;;;;;6191521;23;20016;-82
2023/02/22 05:19:59;;;;;;;61.78;29.00;;;8.40;99.90;;;;;;6219359;23;20012;-84
2023/02/22 05:22:25;;;;;;;65.75;29.33;;;8.50;99.90;;;;;;6244203;23;20012;-82
2023/02/22 05:24:51;;;;;;;62.10;29.75;;;8.00;99.90;;;;;;6216068;23;20467;-82
2023/02/22 05:27:18;;;;;;;61.40;28.17;;;8.50;99.90;;;;;;6243118;23;20388;-87
2023/02/22 05:29:44;;;;;;;65.30;30.67;;;8.10;99.90;;;;;;6191764;23;20294;-82
2023/02/22 05:32:11;;;;;;;68.30;30.02;;;8.50;99.90;;;;;;6215785;23;20043;-84
2023/02/22 05:34:37;;;;;;;69.97;29.90;;;8.50;99.90;;;;;;6191159;23;20024;-86
2023/02/22 05:37:03;;;;;;;76.63;31.92;;;8.50;99.90;;;;;;6217320;23;20084;-82
2023/02/22 05:39:29;;;;;;;67.68;31.33;;;8.10;99.90;;;;;;6192646;23;20008;-82
2023/02/22 05:41:55;;;;;;;66.95;32.15;;;8.50;99.90;;;;;;6194279;23;20104;-79
2023/02/22 05:44:21;;;;;;;68.28;32.67;;;8.40;99.90;;;;;;6242767;23;20494;-87
2023/02/22 05:46:47;;;;;;;67.40;32.25;;;7.90;99.90;;;;;;6216202;23;20024;-85
2023/02/22 05:49:13;;;;;;;68.30;31.67;;;8.40;99.90;;;;;;6216799;23;20309;-84
2023/02/22 05:51:38;;;;;;;71.32;33.33;;;8.30;99.90;;;;;;6216204;23;20016;-84
2023/02/22 05:54:05;;;;;;;70.95;34.25;;;8.00;99.90;;;;;;6214976;23;20397;-84
2023/02/22 05:56:31;;;;;;;71.57;32.47;;;8.30;99.90;;;;;;6217289;23;20055;-79
2023/02/22 05:58:57;;;;;;;71.90;33.80;;;8.20;99.90;;;;;;6191679;23;20024;-82
2023/02/22 06:01:23;;;;;;;71.43;33.85;;;8.40;99.90;;;;;;6216218;23;20012;-85
2023/02/22 06:03:50;;;;;;;74.05;35.25;;;7.90;99.90;;;;;;6216704;23;20084;-83
2023/02/22 06:06:16;;;;;;;76.03;35.22;;;8.10;99.90;;;;;;6217163;23;20091;-83
2023/02/22 06:08:42;;;;;;;71.78;33.78;;;8.00;99.90;;;;;;6217861;23;20301;-85
2023/02/22 06:11:45;;;;;;;75.32;35.50;;;8.20;99.90;;;;;;6242439;23;20016;-85
2023/02/22 06:14:11;;;;;;;73.80;35.08;;;8.00;99.90;;;;;;6217838;23;20012;-82
2023/02/22 06:16:37;;;;;;;74.32;35.83;;;8.10;99.90;;;;;;6218051;23;20008;-80
2023/02/22 06:19:02;;;;;;;78.55;35.17;;;7.80;99.90;;;;;;6193885;23;20020;-85
2023/02/22 06:21:29;;;;;;;78.45;36.38;;;8.20;99.90;;;;;;6192660;23;20431;-85
2023/02/22 06:23:54;;;;;;;76.35;35.15;;;8.10;99.90;;;;;;6218531;23;20083;-81
2023/02/22 06:26:21;;;;;;;77.22;37.40;;;8.10;99.90;;;;;;6192988;23;20062;-85
2023/02/22 06:28:47;;;;;;;74.50;38.08;;;7.70;99.90;;;;;;6192514;23;20059;-82
2023/02/22 06:31:13;;;;;;;86.55;39.47;;;8.10;99.90;;;;;;6191353;23;20016;-84
2023/02/22 06:33:39;;;;;;;85.22;39.10;;;7.90;99.90;;;;;;6216649;23;20447;-82
2023/02/22 06:36:06;;;;;;;77.35;38.15;;;7.90;99.90;;;;;;6193112;23;20027;-82
2023/02/22 06:38:32;;;;;;;81.90;39.85;;;8.00;99.90;;;;;;6218609;23;20012;-84
2023/02/22 06:41:08;;;;;;;80.50;38.88;;;8.00;99.90;;;;;;6217281;23;20095;-86
2023/02/22 06:43:34;;;;;;;85.07;39.80;;;7.90;99.90;;;;;;6191163;23;20012;-84
2023/02/22 06:45:59;;;;;;;83.90;38.65;;;7.90;99.90;;;;;;6217079;23;20012;-83
2023/02/22 06:48:25;;;;;;;86.93;40.50;;;8.00;99.90;;;;;;6215469;23;20269;-84
2023/02/22 06:50:51;;;;;;;82.70;38.95;;;7.90;99.90;;;;;;6191020;23;20336;-82
2023/02/22 06:53:16;;;;;;;88.28;40.45;;;7.80;99.90;;;;;;6191158;23;20035;-83
2023/02/22 06:55:42;;;;;;;88.78;41.20;;;7.60;99.90;;;;;;6192453;23;20044;-85
2023/02/22 06:58:08;;;;;;;85.78;40.33;;;7.80;99.90;;;;;;6191961;23;20042;-84
2023/02/22 07:00:33;;;;;;;88.32;40.83;;;7.80;99.90;;;;;;6216847;23;20340;-83
2023/02/22 07:02:59;;;;;;;88.90;41.65;;;8.00;99.90;;;;;;6191736;23;20344;-85
2023/02/22 07:05:26;;;;;;;88.55;41.13;;;7.80;99.90;;;;;;6216181;23;20039;-84
2023/02/22 07:07:54;;;;;;;89.55;41.95;;;7.90;99.90;;;;;;6216649;23;20424;-85
2023/02/22 07:10:23;;;;;;;87.32;39.78;;;7.70;99.90;;;;;;6191197;23;20024;-80
2023/02/22 07:12:49;;;;;;;93.88;41.78;;;7.70;99.90;;;;;;6216201;23;20022;-84
2023/02/22 07:15:17;;;;;;;90.45;40.38;;;8.00;99.90;;;;;;6191666;23;20012;-85
2023/02/22 07:17:43;;;;;;;86.78;40.33;;;8.10;99.90;;;;;;6190239;23;20020;-83
2023/02/22 07:20:10;;;;;;;90.50;40.75;;;7.70;99.90;;;;;;6216335;23;20012;-84
2023/02/22 07:22:37;;;;;;;88.28;40.35;;;7.80;99.90;;;;;;6190972;23;20020;-82
2023/02/22 07:25:05;;;;;;;87.43;40.95;;;8.10;99.90;;;;;;6192500;23;20020;-85
2023/02/22 07:27:31;;;;;;;92.70;40.72;;;7.80;99.90;;;;;;6241512;23;20016;-84
2023/02/22 07:29:57;;;;;;;94.85;42.67;;;7.80;99.90;;;;;;6189165;23;20074;-85
2023/02/22 07:32:22;;;;;;;93.13;42.33;;;7.80;99.90;;;;;;6241570;23;20027;-85
2023/02/22 07:34:48;;;;;;;98.55;42.97;;;8.00;99.90;;;;;;6212560;23;20024;-84
2023/02/22 07:37:14;;;;;;;103.88;43.97;;;7.80;99.90;;;;;;6214806;23;20023;-85
2023/02/22 07:39:42;;;;;;;106.53;45.08;;;8.10;99.90;;;;;;6215223;23;20012;-85
2023/02/22 07:42:08;;;;;;;96.25;42.50;;;8.00;99.90;;;;;;6188735;23;20008;-85
2023/02/22 07:44:34;;;;;;;100.20;44.58;;;7.70;99.90;;;;;;6213960;23;20007;-84
2023/02/22 07:47:01;;;;;;;111.40;45.25;;;7.80;99.90;;;;;;6215008;23;20467;-86
2023/02/22 07:49:27;;;;;;;102.22;44.10;;;8.00;99.90;;;;;;6242564;23;20012;-84
2023/02/22 07:51:52;;;;;;;104.65;44.83;;;8.00;99.90;;;;;;6215803;23;20016;-83
2023/02/22 07:54:18;;;;;;;107.00;44.97;;;7.80;99.90;;;;;;6243494;23;20005;-84
2023/02/22 07:56:46;;;;;;;113.93;46.00;;;7.90;99.90;;;;;;6194751;23;20441;-86
2023/02/22 07:59:12;;;;;;;111.65;46.63;;;7.70;99.90;;;;;;6217934;23;20099;-83
2023/02/22 08:01:38;;;;;;;106.32;46.47;;;7.70;99.90;;;;;;6192614;23;20078;-85
2023/02/22 08:04:04;;;;;;;103.75;44.38;;;7.80;99.90;;;;;;6217909;23;20440;-85
2023/02/22 08:06:30;;;;;;;110.32;45.10;;;7.90;99.90;;;;;;6193015;23;20016;-81
2023/02/22 08:08:56;;;;;;;106.97;43.75;;;8.20;99.90;;;;;;6218391;23;20027;-87
2023/02/22 08:15:05;;;;;;;106.07;45.92;;;7.80;99.90;;;;;;6250369;23;20096;-81
2023/02/22 08:17:31;;;;;;;108.88;45.35;;;8.00;99.90;;;;;;6221072;23;20359;-85
2023/02/22 08:19:57;;;;;;;109.13;46.92;;;7.90;99.90;;;;;;6216761;23;20092;-84
2023/02/22 08:22:23;;;;;;;109.28;47.42;;;7.80;99.90;;;;;;6217270;23;20454;-84
2023/02/22 08:24:53;;;;;;;112.75;47.15;;;8.10;99.90;;;;;;6191117;23;20020;-84
2023/02/22 08:27:26;;;;;;;114.50;47.53;;;7.80;99.90;;;;;;6191769;23;20012;-84
2023/02/22 08:29:52;;;;;;;113.35;47.53;;;7.90;99.90;;;;;;6190467;23;20020;-84
2023/02/22 08:32:19;;;;;;;116.45;47.22;;;7.90;99.90;;;;;;6215562;23;20043;-81
2023/02/22 08:34:45;;;;;;;122.15;50.40;;;7.80;99.90;;;;;;6241899;23;20082;-83
2023/02/22 08:37:10;;;;;;;116.13;49.35;;;7.70;99.90;;;;;;6189274;23;20033;-84
2023/02/22 08:39:36;;;;;;;115.90;50.28;;;8.10;99.90;;;;;;6214138;23;20103;-82
2023/02/22 08:45:44;;;;;;;118.82;48.90;;;8.00;99.90;;;;;;6244044;23;20019;-82
2023/02/22 08:48:10;;;;;;;119.03;50.53;;;7.90;99.90;;;;;;6191804;23;20412;-83
2023/02/22 08:50:36;;;;;;;119.65;50.20;;;8.00;99.90;;;;;;6198174;23;20031;-81
2023/02/22 08:53:04;;;;;;;125.05;52.65;;;7.90;99.90;;;;;;6200302;23;20069;-79
2023/02/22 08:55:33;;;;;;;114.75;49.58;;;8.10;99.90;;;;;;6224529;23;20013;-82
2023/02/22 08:58:01;;;;;;;120.57;50.63;;;8.00;99.90;;;;;;6199523;23;20433;-83
2023/02/22 09:00:31;;;;;;;117.38;51.65;;;8.10;99.90;;;;;;6200292;23;20073;-81
2023/02/22 09:02:58;;;;;;;119.82;51.03;;;8.00;99.90;;;;;;6203149;23;20027;-82
2023/02/22 09:05:24;;;;;;;124.78;51.70;;;8.00;99.90;;;;;;6223346;23;20016;-87
2023/02/22 09:07:49;;;;;;;126.13;51.67;;;8.30;99.90;;;;;;6191785;23;20019;-86
2023/02/22 09:10:25;;;;;;;121.53;51.60;;;8.40;99.90;;;;;;6218351;23;20016;-86
2023/02/22 09:16:32;;;;;;;122.10;52.08;;;8.30;99.90;;;;;;6244403;23;20210;-86
2023/02/22 09:18:58;;;;;;;121.25;51.35;;;8.30;99.90;;;;;;6197378;23;20095;-83
2023/02/22 09:21:23;;;;;;;123.63;51.65;;;8.40;99.90;;;;;;6201447;23;20008;-82
2023/02/22 09:23:49;;;;;;;123.85;52.05;;;8.50;99.90;;;;;;6201334;23;20016;-82
2023/02/22 09:26:15;;;;;;;117.18;50.70;;;8.70;99.90;;;;;;6201950;23;20023;-81
2023/02/22 09:29:21;;;;;;;119.88;51.03;;;8.50;99.90;;;;;;6222742;23;20036;-86
2023/02/22 09:31:48;;;;;;;119.30;51.60;;;8.70;99.90;;;;;;6201169;23;20023;-82
2023/02/22 09:34:15;;;;;;;116.80;50.15;;;8.40;99.90;;;;;;6225081;23;20019;-81
2023/02/22 09:36:41;;;;;;;122.82;51.90;;;8.60;99.90;;;;;;6204642;23;20020;-83
2023/02/22 09:39:10;;;;;;;118.53;50.38;;;8.40;99.90;;;;;;6202475;23;20019;-81
2023/02/22 09:49:14;;;;;;;123.15;50.95;;;8.70;99.90;;;;;;6246679;23;20062;-85
2023/02/22 09:51:44;;;;;;;120.45;49.90;;;8.80;99.90;;;;;;6218150;23;20020;-89
2023/02/22 09:54:21;;;;;;;112.75;50.47;;;8.70;99.90;;;;;;6217164;23;20266;-82
2023/02/22 09:56:51;;;;;;;113.35;49.90;;;8.70;99.90;;;;;;6191616;23;20324;-84
2023/02/22 09:59:23;;;;;;;122.32;50.97;;;8.70;99.90;;;;;;6217954;23;20096;-86
2023/02/22 10:01:57;;;;;;;119.15;49.75;;;8.50;99.90;;;;;;6216257;23;20477;-89
2023/02/22 10:04:40;;;;;;;117.80;50.87;;;8.80;99.90;;;;;;6192553;23;20013;-91
2023/02/22 10:07:05;;;;;;;115.38;48.67;;;8.60;99.90;;;;;;6190754;23;20012;-88
2023/02/22 10:09:41;;;;;;;117.90;49.00;;;8.70;99.90;;;;;;6191140;23;20013;-85
2023/02/22 10:12:29;;;;;;;111.15;48.53;;;8.90;99.90;;;;;;6216136;23;20023;-88
2023/02/22 10:15:20;;;;;;;113.05;47.17;;;8.70;99.90;;;;;;6217260;23;20012;-86
2023/02/22 10:17:45;;;;;;;116.97;47.95;;;8.90;99.90;;;;;;6190742;23;20015;-81
2023/02/22 10:20:41;;;;;;;110.20;47.53;;;8.60;99.90;;;;;;6216972;23;20409;-82
2023/02/22 10:23:33;;;;;;;108.25;47.20;;;9.00;99.90;;;;;;6215900;23;20336;-79
2023/02/22 10:26:08;;;;;;;114.55;48.67;;;8.70;99.90;;;;;;6190796;23;20019;-82
2023/02/22 10:28:38;;;;;;;;;;;8.80;99.90;;;;;;6190446;23;20020;-82
2023/02/22 10:31:07;;;;;;;117.65;49.38;;;8.90;99.90;;;;;;6216234;23;19934;-82
2023/02/22 10:33:46;;;;;;;115.70;48.55;;;9.10;99.90;;;;;;6217531;23;20070;-84
2023/02/22 10:36:22;;;;;;;117.25;48.60;;;8.90;99.90;;;;;;6191722;23;20579;-85
2023/02/22 10:39:10;;;;;;;115.10;50.55;;;8.90;99.90;;;;;;6215542;23;20779;-81
2023/02/22 10:41:43;;;;;;;118.05;49.38;;;9.00;99.90;;;;;;6191376;23;20328;-84
2023/02/22 10:44:09;;;;;;;115.20;48.50;;;8.90;99.90;;;;;;6190927;23;20119;-84
2023/02/22 10:46:38;;;;;;;115.45;49.85;;;8.90;99.90;;;;;;6217039;23;20055;-85
2023/02/22 10:49:08;;;;;;;112.95;51.00;;;9.10;99.90;;;;;;6193822;23;20059;-83
2023/02/22 10:51:34;;;;;;;120.28;49.85;;;9.20;99.90;;;;;;6217427;23;20017;-82
2023/02/22 10:54:12;;;;;;;116.90;51.05;;;9.10;99.90;;;;;;6217006;23;20012;-83
2023/02/22 10:56:50;;;;;;;117.68;51.38;;;9.30;99.90;;;;;;6191621;23;20106;-86
2023/02/22 10:59:36;;;;;;;120.72;50.35;;;9.20;99.90;;;;;;6216638;23;20043;-82
2023/02/22 11:02:26;;;;;;;120.45;50.85;;;9.40;99.90;;;;;;6217723;23;20087;-86
2023/02/22 11:04:54;;;;;;;109.85;50.05;;;9.50;99.90;;;;;;6217192;23;20551;-87
2023/02/22 11:07:29;;;;;;;118.13;50.30;;;9.50;99.90;;;;;;6192571;23;20043;-85
2023/02/22 11:10:00;;;;;;;111.75;50.00;;;9.60;99.90;;;;;;6192407;23;20431;-82
2023/02/22 11:12:42;;;;;;;112.53;51.58;;;9.80;99.90;;;;;;6192676;23;20027;-79
2023/02/22 11:15:23;;;;;;;117.47;51.90;;;9.60;99.90;;;;;;6218463;23;20027;-86
2023/02/22 11:17:54;;;;;;;115.22;50.83;;;9.90;99.90;;;;;;6219952;23;20044;-85
2023/02/22 11:20:24;;;;;;;113.30;50.03;;;9.70;99.90;;;;;;6218984;23;20089;-82
2023/02/22 11:22:59;;;;;;;118.45;50.60;;;9.80;99.90;;;;;;6195932;23;20016;-82
2023/02/22 11:25:29;;;;;;;110.70;49.72;;;10.00;99.90;;;;;;6218032;23;20016;-81
2023/02/22 11:28:13;;;;;;;114.28;51.10;;;9.90;99.90;;;;;;6191085;23;20020;-79
2023/02/22 11:30:43;;;;;;;112.05;49.95;;;9.90;99.90;;;;;;6215210;23;20016;-81
2023/02/22 11:33:14;;;;;;;117.10;50.83;;;10.20;99.90;;;;;;6167441;23;20118;-82
2023/02/22 11:35:51;;;;;;;112.63;49.42;;;10.30;99.90;;;;;;6214775;23;20075;-81
2023/02/22 11:38:31;;;;;;;118.35;51.58;;;10.40;99.90;;;;;;6222817;23;20016;-81
2023/02/22 11:41:25;;;;;;;112.63;50.03;;;10.20;99.90;;;;;;6188989;23;20980;-84
2023/02/22 11:43:53;;;;;;;123.45;53.03;;;10.30;99.90;;;;;;6215539;23;20019;-80
2023/02/22 11:46:26;;;;;;;111.55;50.85;;;10.30;99.90;;;;;;6191523;23;20030;-82
2023/02/22 11:49:10;;;;;;;117.68;51.25;;;10.60;99.90;;;;;;6219802;23;20012;-82
2023/02/22 11:51:55;;;;;;;115.00;49.78;;;10.60;99.90;;;;;;6201513;23;20023;-83
2023/02/22 11:54:58;;;;;;;;;;;10.50;99.90;;;;;;6222864;23;20016;-80
2023/02/22 11:57:29;;;;;;;118.40;50.28;;;10.30;99.90;;;;;;6216362;23;19920;-83
2023/02/22 12:00:08;;;;;;;120.80;49.78;;;10.40;99.90;;;;;;6220970;23;20012;-82
2023/02/22 12:02:56;;;;;;;121.97;50.20;;;10.20;99.90;;;;;;6197995;23;20176;-85
2023/02/22 12:05:41;;;;;;;119.82;50.28;;;10.50;99.90;;;;;;6206752;23;20092;-80
2023/02/22 12:08:31;;;;;;;116.22;49.20;;;10.30;99.90;;;;;;6225859;23;20031;-81
2023/02/22 12:11:21;;;;;;;116.07;50.03;;;10.30;99.90;;;;;;6196021;23;20440;-82
2023/02/22 12:14:30;;;;;;;116.65;50.00;;;10.60;99.90;;;;;;6070515;23;20018;-80
2023/02/22 12:17:08;;;;;;;111.63;48.47;;;10.70;99.90;;;;;;6047861;23;20070;-83
2023/02/22 12:19:42;;;;;;;120.72;50.13;;;10.60;99.90;;;;;;6073959;23;20014;-84
2023/02/22 12:22:17;;;;;;;112.85;49.20;;;10.60;99.90;;;;;;6074860;23;20082;-85
2023/02/22 12:24:50;;;;;;;106.70;48.20;;;10.80;99.90;;;;;;6072850;23;20070;-85
2023/02/22 12:27:21;;;;;;;117.47;50.60;;;10.60;99.90;;;;;;6049686;23;20025;-84
2023/02/22 12:29:57;;;;;;;114.18;49.85;;;10.90;99.90;;;;;;6050421;23;20073;-82
2023/02/22 12:32:41;;;;;;;118.93;49.53;;;10.80;99.90;;;;;;6079425;23;20042;-84
2023/02/22 12:35:08;;;;;;;;;;;11.00;99.90;;;;;;6085346;23;20034;-82
2023/02/22 12:38:11;;;;;;;112.50;49.10;;;11.00;99.90;;;;;;6107072;23;19942;-81
2023/02/22 12:40:53;;;;;;;111.50;48.47;;;11.20;99.90;;;;;;6109818;23;20022;-82
2023/02/22 12:43:43;;;;;;;118.63;49.83;;;11.20;99.90;;;;;;6063928;23;20014;-81
2023/02/22 12:46:30;;;;;;;111.88;47.45;;;11.20;99.90;;;;;;6058736;23;20031;-82
2023/02/22 12:49:21;;;;;;;115.80;47.88;;;11.20;99.90;;;;;;6057808;23;20034;-80
2023/02/22 12:52:12;;;;;;;115.22;46.30;;;11.30;99.90;;;;;;6218372;23;20035;-80
2023/02/22 12:54:50;;;;;;;108.10;46.50;;;11.20;99.90;;;;;;6229940;23;20020;-80
2023/02/22 12:57:27;;;;;;;106.32;46.13;;;11.10;99.90;;;;;;6230825;23;20016;-80
2023/02/22 12:59:58;;;;;;;117.20;46.80;;;10.80;99.90;;;;;;6228416;23;20047;-79
2023/02/22 13:02:34;;;;;;;117.82;48.05;;;10.80;99.90;;;;;;6203914;23;20069;-81
2023/02/22 13:05:00;;;;;;;114.55;47.45;;;11.00;99.90;;;;;;6227935;23;20011;-80
2023/02/22 13:07:33;;;;;;;141.70;49.95;;;11.20;99.90;;;;;;6229528;23;20094;-83
2023/02/22 13:10:31;;;;;;;110.75;45.42;;;11.00;99.90;;;;;;6204350;23;20016;-81
2023/02/22 13:13:09;;;;;;;116.25;44.55;;;10.80;99.90;;;;;;6076298;23;20022;-80
2023/02/22 13:16:20;;;;;;;106.82;42.47;;;11.00;99.90;;;;;;6075341;23;20022;-80
2023/02/22 13:19:00;;;;;;;112.25;43.78;;;10.70;99.90;;;;;;5993115;23;20040;-82
2023/02/22 13:21:43;;;;;;;110.22;40.78;;;10.80;99.90;;;;;;5994926;24;20028;-81